sensor_id;sensor_type;location;lat;lon;timestamp;temperature;humidity
14409;DHT22;7289;50.706;4.992;2023-02-21T00:00:42;8.50;99.90
14409;DHT22;7289;50.706;4.992;2023-02-21T00:03:28;8.40;99.90
14409;DHT22;7289;50.706;4.992;2023-02-21T00:06:15;8.40;99.90
14409;DHT22;7289;50.706;4.992;2023-02-21T00:09:01;8.30;99.90
14409;DHT22;7289;50.706;4.992;2023-02-21T00:11:46;8.40;99.90
14409;DHT22;7289;50.706;4.992;2023-02-21T00:14:32;8.20;99.90
14409;DHT22;7289;50.706;4.992;2023-02-21T00:17:18;8.20;99.90
14409;DHT22;7289;50.706;4.992;2023-02-21T00:20:04;8.20;99.90
14409;DHT22;7289;50.706;4.992;2023-02-21T00:22:52;8.20;99.90
14409;DHT22;7289;50.706;4.992;2023-02-21T00:25:38;8.30;99.90
14409;DHT22;7289;50.706;4.992;2023-02-21T00:28:23;8.40;99.90
14409;DHT22;7289;50.706;4.992;2023-02-21T00:31:09;8.50;99.90
14409;DHT22;7289;50.706;4.992;2023-02-21T00:33:54;8.40;99.90
14409;DHT22;7289;50.706;4.992;2023-02-21T00:36:40;8.50;99.90
14409;DHT22;7289;50.706;4.992;2023-02-21T00:39:27;8.50;99.90
14409;DHT22;7289;50.706;4.992;2023-02-21T00:42:13;8.60;99.90
14409;DHT22;7289;50.706;4.992;2023-02-21T00:44:58;8.60;99.90
14409;DHT22;7289;50.706;4.992;2023-02-21T00:47:44;8.50;99.90
14409;DHT22;7289;50.706;4.992;2023-02-21T00:50:29;8.50;99.90
14409;DHT22;7289;50.706;4.992;2023-02-21T00:53:15;8.40;99.90
14409;DHT22;7289;50.706;4.992;2023-02-21T00:56:03;8.30;99.90
14409;DHT22;7289;50.706;4.992;2023-02-21T00:58:49;8.20;99.90
14409;DHT22;7289;50.706;4.992;2023-02-21T01:01:35;8.20;99.90
14409;DHT22;7289;50.706;4.992;2023-02-21T01:04:21;8.30;99.90
14409;DHT22;7289;50.706;4.992;2023-02-21T01:07:07;8.30;99.90
14409;DHT22;7289;50.706;4.992;2023-02-21T01:09:52;8.30;99.90
14409;DHT22;7289;50.706;4.992;2023-02-21T01:12:39;8.30;99.90
14409;DHT22;7289;50.706;4.992;2023-02-21T01:15:25;8.40;99.90
14409;DHT22;7289;50.706;4.992;2023-02-21T01:18:12;8.40;99.90
14409;DHT22;7289;50.706;4.992;2023-02-21T01:20:58;8.30;99.90
14409;DHT22;7289;50.706;4.992;2023-02-21T01:23:44;8.40;99.90
14409;DHT22;7289;50.706;4.992;2023-02-21T01:26:30;8.40;99.90
14409;DHT22;7289;50.706;4.992;2023-02-21T01:29:18;8.50;99.90
14409;DHT22;7289;50.706;4.992;2023-02-21T01:32:04;8.40;99.90
14409;DHT22;7289;50.706;4.992;2023-02-21T01:34:49;8.40;99.90
14409;DHT22;7289;50.706;4.992;2023-02-21T01:37:35;8.40;99.90
14409;DHT22;7289;50.706;4.992;2023-02-21T01:40:21;8.30;99.90
14409;DHT22;7289;50.706;4.992;2023-02-21T01:43:13;8.30;99.90
14409;DHT22;7289;50.706;4.992;2023-02-21T01:46:01;8.20;99.90
14409;DHT22;7289;50.706;4.992;2023-02-21T01:48:47;8.20;99.90
14409;DHT22;7289;50.706;4.992;2023-02-21T01:51:36;8.20;99.90
14409;DHT22;7289;50.706;4.992;2023-02-21T01:54:31;8.20;99.90
14409;DHT22;7289;50.706;4.992;2023-02-21T01:57:19;8.20;99.90
14409;DHT22;7289;50.706;4.992;2023-02-21T02:00:07;8.10;99.90
14409;DHT22;7289;50.706;4.992;2023-02-21T02:02:57;8.10;99.90
14409;DHT22;7289;50.706;4.992;2023-02-21T02:05:45;8.00;99.90
14409;DHT22;7289;50.706;4.992;2023-02-21T02:08:33;8.10;99.90
14409;DHT22;7289;50.706;4.992;2023-02-21T02:11:30;8.10;99.90
14409;DHT22;7289;50.706;4.992;2023-02-21T02:14:39;8.10;99.90
14409;DHT22;7289;50.706;4.992;2023-02-21T02:17:18;8.10;99.90
14409;DHT22;7289;50.706;4.992;2023-02-21T02:20:16;8.10;99.90
14409;DHT22;7289;50.706;4.992;2023-02-21T02:23:13;8.00;99.90
14409;DHT22;7289;50.706;4.992;2023-02-21T02:26:11;8.10;99.90
14409;DHT22;7289;50.706;4.992;2023-02-21T02:28:54;8.20;99.90
14409;DHT22;7289;50.706;4.992;2023-02-21T02:32:00;8.20;99.90
14409;DHT22;7289;50.706;4.992;2023-02-21T02:34:49;8.30;99.90
14409;DHT22;7289;50.706;4.992;2023-02-21T02:37:23;8.30;99.90
14409;DHT22;7289;50.706;4.992;2023-02-21T02:39:59;8.30;99.90
14409;DHT22;7289;50.706;4.992;2023-02-21T02:42:39;8.20;99.90
14409;DHT22;7289;50.706;4.992;2023-02-21T02:45:12;8.30;99.90
14409;DHT22;7289;50.706;4.992;2023-02-21T02:47:43;8.20;99.90
14409;DHT22;7289;50.706;4.992;2023-02-21T02:50:14;8.20;99.90
14409;DHT22;7289;50.706;4.992;2023-02-21T02:52:50;8.30;99.90
14409;DHT22;7289;50.706;4.992;2023-02-21T02:55:29;8.30;99.90
14409;DHT22;7289;50.706;4.992;2023-02-21T02:58:01;8.30;99.90
14409;DHT22;7289;50.706;4.992;2023-02-21T03:00:30;8.40;99.90
14409;DHT22;7289;50.706;4.992;2023-02-21T03:03:12;8.30;99.90
14409;DHT22;7289;50.706;4.992;2023-02-21T03:05:54;8.40;99.90
14409;DHT22;7289;50.706;4.992;2023-02-21T03:08:32;8.30;99.90
14409;DHT22;7289;50.706;4.992;2023-02-21T03:11:11;8.20;99.90
14409;DHT22;7289;50.706;4.992;2023-02-21T03:13:44;8.20;99.90
14409;DHT22;7289;50.706;4.992;2023-02-21T03:16:18;8.20;99.90
14409;DHT22;7289;50.706;4.992;2023-02-21T03:18:51;8.10;99.90
14409;DHT22;7289;50.706;4.992;2023-02-21T03:21:26;8.20;99.90
14409;DHT22;7289;50.706;4.992;2023-02-21T03:23:57;8.20;99.90
14409;DHT22;7289;50.706;4.992;2023-02-21T03:26:31;8.20;99.90
14409;DHT22;7289;50.706;4.992;2023-02-21T03:29:14;8.20;99.90
14409;DHT22;7289;50.706;4.992;2023-02-21T03:31:46;8.20;99.90
14409;DHT22;7289;50.706;4.992;2023-02-21T03:34:15;8.20;99.90
14409;DHT22;7289;50.706;4.992;2023-02-21T03:36:45;8.20;99.90
14409;DHT22;7289;50.706;4.992;2023-02-21T03:39:15;8.20;99.90
14409;DHT22;7289;50.706;4.992;2023-02-21T03:41:43;8.10;99.90
14409;DHT22;7289;50.706;4.992;2023-02-21T03:44:12;8.20;99.90
14409;DHT22;7289;50.706;4.992;2023-02-21T03:46:41;8.30;99.90
14409;DHT22;7289;50.706;4.992;2023-02-21T03:49:09;8.30;99.90
14409;DHT22;7289;50.706;4.992;2023-02-21T03:51:37;8.20;99.90
14409;DHT22;7289;50.706;4.992;2023-02-21T03:54:07;8.20;99.90
14409;DHT22;7289;50.706;4.992;2023-02-21T03:56:41;8.20;99.90
14409;DHT22;7289;50.706;4.992;2023-02-21T03:59:18;8.30;99.90
14409;DHT22;7289;50.706;4.992;2023-02-21T04:01:46;8.20;99.90
14409;DHT22;7289;50.706;4.992;2023-02-21T04:04:16;8.20;99.90
14409;DHT22;7289;50.706;4.992;2023-02-21T04:06:49;8.20;99.90
14409;DHT22;7289;50.706;4.992;2023-02-21T04:09:18;8.20;99.90
14409;DHT22;7289;50.706;4.992;2023-02-21T04:11:47;8.20;99.90
14409;DHT22;7289;50.706;4.992;2023-02-21T04:14:16;8.20;99.90
14409;DHT22;7289;50.706;4.992;2023-02-21T04:16:44;8.10;99.90
14409;DHT22;7289;50.706;4.992;2023-02-21T04:19:13;8.10;99.90
14409;DHT22;7289;50.706;4.992;2023-02-21T04:21:41;8.10;99.90
14409;DHT22;7289;50.706;4.992;2023-02-21T04:24:10;8.10;99.90
14409;DHT22;7289;50.706;4.992;2023-02-21T04:26:40;8.10;99.90
14409;DHT22;7289;50.706;4.992;2023-02-21T04:29:09;8.00;99.90
14409;DHT22;7289;50.706;4.992;2023-02-21T04:31:38;8.00;99.90
14409;DHT22;7289;50.706;4.992;2023-02-21T04:34:12;8.10;99.90
14409;DHT22;7289;50.706;4.992;2023-02-21T04:36:43;8.10;99.90
14409;DHT22;7289;50.706;4.992;2023-02-21T04:39:12;8.10;99.90
14409;DHT22;7289;50.706;4.992;2023-02-21T04:41:42;8.10;99.90
14409;DHT22;7289;50.706;4.992;2023-02-21T04:44:11;8.20;99.90
14409;DHT22;7289;50.706;4.992;2023-02-21T04:46:40;8.10;99.90
14409;DHT22;7289;50.706;4.992;2023-02-21T04:49:09;8.20;99.90
14409;DHT22;7289;50.706;4.992;2023-02-21T04:51:39;8.20;99.90
14409;DHT22;7289;50.706;4.992;2023-02-21T04:54:07;8.20;99.90
14409;DHT22;7289;50.706;4.992;2023-02-21T04:56:35;8.10;99.90
14409;DHT22;7289;50.706;4.992;2023-02-21T04:59:07;8.20;99.90
14409;DHT22;7289;50.706;4.992;2023-02-21T05:01:35;8.10;99.90
14409;DHT22;7289;50.706;4.992;2023-02-21T05:04:04;8.10;99.90
14409;DHT22;7289;50.706;4.992;2023-02-21T05:06:33;8.10;99.90
14409;DHT22;7289;50.706;4.992;2023-02-21T05:09:02;8.10;99.90
14409;DHT22;7289;50.706;4.992;2023-02-21T05:11:32;8.10;99.90
14409;DHT22;7289;50.706;4.992;2023-02-21T05:14:02;8.10;99.90
14409;DHT22;7289;50.706;4.992;2023-02-21T05:16:31;8.10;99.90
14409;DHT22;7289;50.706;4.992;2023-02-21T05:19:00;8.00;99.90
14409;DHT22;7289;50.706;4.992;2023-02-21T05:21:28;8.00;99.90
14409;DHT22;7289;50.706;4.992;2023-02-21T05:24:00;8.00;99.90
14409;DHT22;7289;50.706;4.992;2023-02-21T05:26:34;8.00;99.90
14409;DHT22;7289;50.706;4.992;2023-02-21T05:29:03;8.00;99.90
14409;DHT22;7289;50.706;4.992;2023-02-21T05:31:33;7.80;99.90
14409;DHT22;7289;50.706;4.992;2023-02-21T05:34:01;7.80;99.90
14409;DHT22;7289;50.706;4.992;2023-02-21T05:36:29;7.80;99.90
14409;DHT22;7289;50.706;4.992;2023-02-21T05:38:58;7.90;99.90
14409;DHT22;7289;50.706;4.992;2023-02-21T05:41:26;7.90;99.90
14409;DHT22;7289;50.706;4.992;2023-02-21T05:43:55;7.90;99.90
14409;DHT22;7289;50.706;4.992;2023-02-21T05:46:25;8.00;99.90
14409;DHT22;7289;50.706;4.992;2023-02-21T05:48:56;8.00;99.90
14409;DHT22;7289;50.706;4.992;2023-02-21T05:51:26;7.90;99.90
14409;DHT22;7289;50.706;4.992;2023-02-21T05:53:54;7.90;99.90
14409;DHT22;7289;50.706;4.992;2023-02-21T05:56:22;7.80;99.90
14409;DHT22;7289;50.706;4.992;2023-02-21T05:58:51;7.80;99.90
14409;DHT22;7289;50.706;4.992;2023-02-21T06:01:19;7.80;99.90
14409;DHT22;7289;50.706;4.992;2023-02-21T06:03:47;7.80;99.90
14409;DHT22;7289;50.706;4.992;2023-02-21T06:06:17;7.80;99.90
14409;DHT22;7289;50.706;4.992;2023-02-21T06:08:47;7.70;99.90
14409;DHT22;7289;50.706;4.992;2023-02-21T06:11:22;7.70;99.90
14409;DHT22;7289;50.706;4.992;2023-02-21T06:13:51;7.70;99.90
14409;DHT22;7289;50.706;4.992;2023-02-21T06:16:20;7.70;99.90
14409;DHT22;7289;50.706;4.992;2023-02-21T06:18:49;7.70;99.90
14409;DHT22;7289;50.706;4.992;2023-02-21T06:21:20;7.70;99.90
14409;DHT22;7289;50.706;4.992;2023-02-21T06:23:48;7.70;99.90
14409;DHT22;7289;50.706;4.992;2023-02-21T06:26:18;7.80;99.90
14409;DHT22;7289;50.706;4.992;2023-02-21T06:28:47;7.70;99.90
14409;DHT22;7289;50.706;4.992;2023-02-21T06:31:16;7.70;99.90
14409;DHT22;7289;50.706;4.992;2023-02-21T06:33:45;7.80;99.90
14409;DHT22;7289;50.706;4.992;2023-02-21T06:36:16;7.80;99.90
14409;DHT22;7289;50.706;4.992;2023-02-21T06:38:47;7.80;99.90
14409;DHT22;7289;50.706;4.992;2023-02-21T06:41:18;7.90;99.90
14409;DHT22;7289;50.706;4.992;2023-02-21T06:43:47;7.90;99.90
14409;DHT22;7289;50.706;4.992;2023-02-21T06:46:15;7.90;99.90
14409;DHT22;7289;50.706;4.992;2023-02-21T06:48:44;7.90;99.90
14409;DHT22;7289;50.706;4.992;2023-02-21T06:51:12;7.80;99.90
14409;DHT22;7289;50.706;4.992;2023-02-21T06:53:42;7.80;99.90
14409;DHT22;7289;50.706;4.992;2023-02-21T06:56:12;7.80;99.90
14409;DHT22;7289;50.706;4.992;2023-02-21T06:58:40;7.80;99.90
14409;DHT22;7289;50.706;4.992;2023-02-21T07:01:09;7.80;99.90
14409;DHT22;7289;50.706;4.992;2023-02-21T07:03:38;7.70;99.90
14409;DHT22;7289;50.706;4.992;2023-02-21T07:06:09;7.80;99.90
14409;DHT22;7289;50.706;4.992;2023-02-21T07:08:37;7.80;99.90
14409;DHT22;7289;50.706;4.992;2023-02-21T07:11:06;7.80;99.90
14409;DHT22;7289;50.706;4.992;2023-02-21T07:13:36;7.80;99.90
14409;DHT22;7289;50.706;4.992;2023-02-21T07:16:05;7.80;99.90
14409;DHT22;7289;50.706;4.992;2023-02-21T07:18:33;7.80;99.90
14409;DHT22;7289;50.706;4.992;2023-02-21T07:21:02;7.80;99.90
14409;DHT22;7289;50.706;4.992;2023-02-21T07:23:30;7.80;99.90
14409;DHT22;7289;50.706;4.992;2023-02-21T07:25:58;7.90;99.90
14409;DHT22;7289;50.706;4.992;2023-02-21T07:28:27;7.90;99.90
14409;DHT22;7289;50.706;4.992;2023-02-21T07:30:56;7.90;99.90
14409;DHT22;7289;50.706;4.992;2023-02-21T07:33:25;8.00;99.90
14409;DHT22;7289;50.706;4.992;2023-02-21T07:35:53;8.00;99.90
14409;DHT22;7289;50.706;4.992;2023-02-21T07:38:23;8.10;99.90
14409;DHT22;7289;50.706;4.992;2023-02-21T07:40:54;8.10;99.90
14409;DHT22;7289;50.706;4.992;2023-02-21T07:43:23;8.10;99.90
14409;DHT22;7289;50.706;4.992;2023-02-21T07:45:51;8.20;99.90
14409;DHT22;7289;50.706;4.992;2023-02-21T07:48:21;8.20;99.90
14409;DHT22;7289;50.706;4.992;2023-02-21T07:50:50;8.20;99.90
14409;DHT22;7289;50.706;4.992;2023-02-21T07:53:18;8.20;99.90
14409;DHT22;7289;50.706;4.992;2023-02-21T07:55:46;8.30;99.90
14409;DHT22;7289;50.706;4.992;2023-02-21T07:58:15;8.30;99.90
14409;DHT22;7289;50.706;4.992;2023-02-21T08:00:46;8.30;99.90
14409;DHT22;7289;50.706;4.992;2023-02-21T08:03:14;8.30;99.90
14409;DHT22;7289;50.706;4.992;2023-02-21T08:05:44;8.30;99.90
14409;DHT22;7289;50.706;4.992;2023-02-21T08:08:14;8.30;99.90
14409;DHT22;7289;50.706;4.992;2023-02-21T08:10:42;8.30;99.90
14409;DHT22;7289;50.706;4.992;2023-02-21T08:13:11;8.40;99.90
14409;DHT22;7289;50.706;4.992;2023-02-21T08:15:39;8.40;99.90
14409;DHT22;7289;50.706;4.992;2023-02-21T08:18:14;8.40;99.90
14409;DHT22;7289;50.706;4.992;2023-02-21T08:20:46;8.50;99.90
14409;DHT22;7289;50.706;4.992;2023-02-21T08:23:14;8.60;99.90
14409;DHT22;7289;50.706;4.992;2023-02-21T08:25:44;8.60;99.90
14409;DHT22;7289;50.706;4.992;2023-02-21T08:28:13;8.60;99.90
14409;DHT22;7289;50.706;4.992;2023-02-21T08:30:42;8.70;99.90
14409;DHT22;7289;50.706;4.992;2023-02-21T08:33:11;8.70;99.90
14409;DHT22;7289;50.706;4.992;2023-02-21T08:35:39;8.70;99.90
14409;DHT22;7289;50.706;4.992;2023-02-21T08:38:09;8.70;99.90
14409;DHT22;7289;50.706;4.992;2023-02-21T08:40:37;8.70;99.90
14409;DHT22;7289;50.706;4.992;2023-02-21T08:43:06;8.80;99.90
14409;DHT22;7289;50.706;4.992;2023-02-21T08:45:34;8.90;99.90
14409;DHT22;7289;50.706;4.992;2023-02-21T08:48:03;8.80;99.90
14409;DHT22;7289;50.706;4.992;2023-02-21T08:50:31;8.70;99.90
14409;DHT22;7289;50.706;4.992;2023-02-21T08:53:00;8.80;99.90
14409;DHT22;7289;50.706;4.992;2023-02-21T08:55:29;8.90;99.90
14409;DHT22;7289;50.706;4.992;2023-02-21T08:57:58;8.90;99.90
14409;DHT22;7289;50.706;4.992;2023-02-21T09:00:26;8.90;99.90
14409;DHT22;7289;50.706;4.992;2023-02-21T09:02:57;8.80;99.90
14409;DHT22;7289;50.706;4.992;2023-02-21T09:05:28;8.70;99.90
14409;DHT22;7289;50.706;4.992;2023-02-21T09:07:58;8.80;99.90
14409;DHT22;7289;50.706;4.992;2023-02-21T09:10:30;8.90;99.90
14409;DHT22;7289;50.706;4.992;2023-02-21T09:13:00;8.80;99.90
14409;DHT22;7289;50.706;4.992;2023-02-21T09:15:29;8.80;99.90
14409;DHT22;7289;50.706;4.992;2023-02-21T09:17:57;8.80;99.90
14409;DHT22;7289;50.706;4.992;2023-02-21T09:20:27;8.80;99.90
14409;DHT22;7289;50.706;4.992;2023-02-21T09:22:55;8.90;99.90
14409;DHT22;7289;50.706;4.992;2023-02-21T09:25:24;8.90;99.90
14409;DHT22;7289;50.706;4.992;2023-02-21T09:27:54;8.90;99.90
14409;DHT22;7289;50.706;4.992;2023-02-21T09:30:25;8.90;99.90
14409;DHT22;7289;50.706;4.992;2023-02-21T09:32:55;9.00;99.90
14409;DHT22;7289;50.706;4.992;2023-02-21T09:35:24;8.90;99.90
14409;DHT22;7289;50.706;4.992;2023-02-21T09:37:56;9.10;99.90
14409;DHT22;7289;50.706;4.992;2023-02-21T09:40:33;9.10;99.90
14409;DHT22;7289;50.706;4.992;2023-02-21T09:43:05;9.10;99.90
14409;DHT22;7289;50.706;4.992;2023-02-21T09:45:36;9.20;99.90
14409;DHT22;7289;50.706;4.992;2023-02-21T09:48:08;9.30;99.90
14409;DHT22;7289;50.706;4.992;2023-02-21T09:50:42;9.40;99.90
14409;DHT22;7289;50.706;4.992;2023-02-21T09:53:15;9.30;99.90
14409;DHT22;7289;50.706;4.992;2023-02-21T09:55:44;9.20;99.90
14409;DHT22;7289;50.706;4.992;2023-02-21T09:58:18;9.30;99.90
14409;DHT22;7289;50.706;4.992;2023-02-21T10:00:47;9.30;99.90
14409;DHT22;7289;50.706;4.992;2023-02-21T10:03:35;9.20;99.90
14409;DHT22;7289;50.706;4.992;2023-02-21T10:06:15;9.30;99.90
14409;DHT22;7289;50.706;4.992;2023-02-21T10:08:51;9.40;99.90
14409;DHT22;7289;50.706;4.992;2023-02-21T10:11:36;9.40;99.90
14409;DHT22;7289;50.706;4.992;2023-02-21T10:14:18;9.50;99.90
14409;DHT22;7289;50.706;4.992;2023-02-21T10:16:55;9.40;99.90
14409;DHT22;7289;50.706;4.992;2023-02-21T10:19:30;9.50;99.90
14409;DHT22;7289;50.706;4.992;2023-02-21T10:22:01;9.60;99.90
14409;DHT22;7289;50.706;4.992;2023-02-21T10:24:31;9.50;99.90
14409;DHT22;7289;50.706;4.992;2023-02-21T10:27:03;9.30;99.90
14409;DHT22;7289;50.706;4.992;2023-02-21T10:29:39;9.40;99.90
14409;DHT22;7289;50.706;4.992;2023-02-21T10:32:11;9.40;99.90
14409;DHT22;7289;50.706;4.992;2023-02-21T10:34:40;9.50;99.90
14409;DHT22;7289;50.706;4.992;2023-02-21T10:37:25;9.60;99.90
14409;DHT22;7289;50.706;4.992;2023-02-21T10:40:00;9.60;99.90
14409;DHT22;7289;50.706;4.992;2023-02-21T10:42:36;9.50;99.90
14409;DHT22;7289;50.706;4.992;2023-02-21T10:45:09;9.60;99.90
14409;DHT22;7289;50.706;4.992;2023-02-21T10:47:47;9.60;99.90
14409;DHT22;7289;50.706;4.992;2023-02-21T10:50:37;9.80;99.90
14409;DHT22;7289;50.706;4.992;2023-02-21T10:53:06;9.90;99.90
14409;DHT22;7289;50.706;4.992;2023-02-21T10:55:34;10.10;99.90
14409;DHT22;7289;50.706;4.992;2023-02-21T10:58:07;10.00;99.90
14409;DHT22;7289;50.706;4.992;2023-02-21T11:00:39;10.20;99.90
14409;DHT22;7289;50.706;4.992;2023-02-21T11:03:19;10.30;99.90
14409;DHT22;7289;50.706;4.992;2023-02-21T11:05:50;10.30;99.90
14409;DHT22;7289;50.706;4.992;2023-02-21T11:08:34;10.40;99.90
14409;DHT22;7289;50.706;4.992;2023-02-21T11:11:03;10.30;99.90
14409;DHT22;7289;50.706;4.992;2023-02-21T11:13:32;10.40;99.90
14409;DHT22;7289;50.706;4.992;2023-02-21T11:16:14;10.40;99.90
14409;DHT22;7289;50.706;4.992;2023-02-21T11:18:43;10.50;99.90
14409;DHT22;7289;50.706;4.992;2023-02-21T11:21:13;10.40;99.90
14409;DHT22;7289;50.706;4.992;2023-02-21T11:23:45;10.60;99.90
14409;DHT22;7289;50.706;4.992;2023-02-21T11:26:15;10.90;99.90
14409;DHT22;7289;50.706;4.992;2023-02-21T11:28:45;11.00;99.90
14409;DHT22;7289;50.706;4.992;2023-02-21T11:31:27;11.20;99.90
14409;DHT22;7289;50.706;4.992;2023-02-21T11:33:59;11.30;99.90
14409;DHT22;7289;50.706;4.992;2023-02-21T11:36:29;11.10;99.90
14409;DHT22;7289;50.706;4.992;2023-02-21T11:39:01;11.20;99.90
14409;DHT22;7289;50.706;4.992;2023-02-21T11:41:36;11.00;99.90
14409;DHT22;7289;50.706;4.992;2023-02-21T11:44:23;11.20;99.90
14409;DHT22;7289;50.706;4.992;2023-02-21T11:47:00;11.40;99.90
14409;DHT22;7289;50.706;4.992;2023-02-21T11:49:36;11.50;99.90
14409;DHT22;7289;50.706;4.992;2023-02-21T11:52:08;11.20;99.90
14409;DHT22;7289;50.706;4.992;2023-02-21T11:54:39;11.30;99.90
14409;DHT22;7289;50.706;4.992;2023-02-21T11:57:12;11.20;99.90
14409;DHT22;7289;50.706;4.992;2023-02-21T11:59:49;11.20;99.90
14409;DHT22;7289;50.706;4.992;2023-02-21T12:02:52;11.20;99.90
14409;DHT22;7289;50.706;4.992;2023-02-21T12:05:34;11.30;99.90
14409;DHT22;7289;50.706;4.992;2023-02-21T12:08:28;11.30;99.90
14409;DHT22;7289;50.706;4.992;2023-02-21T12:11:09;11.20;99.90
14409;DHT22;7289;50.706;4.992;2023-02-21T12:13:48;11.30;99.90
14409;DHT22;7289;50.706;4.992;2023-02-21T12:16:26;11.20;99.90
14409;DHT22;7289;50.706;4.992;2023-02-21T12:19:15;11.30;99.90
14409;DHT22;7289;50.706;4.992;2023-02-21T12:21:58;11.50;99.90
14409;DHT22;7289;50.706;4.992;2023-02-21T12:24:42;11.60;99.90
14409;DHT22;7289;50.706;4.992;2023-02-21T12:27:17;11.30;99.90
14409;DHT22;7289;50.706;4.992;2023-02-21T12:30:06;11.40;99.90
14409;DHT22;7289;50.706;4.992;2023-02-21T12:32:59;11.60;99.90
14409;DHT22;7289;50.706;4.992;2023-02-21T12:35:53;11.70;99.90
14409;DHT22;7289;50.706;4.992;2023-02-21T12:38:34;11.80;99.90
14409;DHT22;7289;50.706;4.992;2023-02-21T12:41:17;11.80;99.90
14409;DHT22;7289;50.706;4.992;2023-02-21T12:43:51;11.80;99.90
14409;DHT22;7289;50.706;4.992;2023-02-21T12:46:26;12.00;99.90
14409;DHT22;7289;50.706;4.992;2023-02-21T12:49:00;12.00;99.90
14409;DHT22;7289;50.706;4.992;2023-02-21T12:51:35;11.80;99.90
14409;DHT22;7289;50.706;4.992;2023-02-21T12:54:06;12.00;99.90
14409;DHT22;7289;50.706;4.992;2023-02-21T12:56:39;12.10;99.90
14409;DHT22;7289;50.706;4.992;2023-02-21T12:59:14;12.20;99.90
14409;DHT22;7289;50.706;4.992;2023-02-21T13:01:47;12.40;99.90
14409;DHT22;7289;50.706;4.992;2023-02-21T13:04:23;12.30;99.90
14409;DHT22;7289;50.706;4.992;2023-02-21T13:06:59;12.40;99.90
14409;DHT22;7289;50.706;4.992;2023-02-21T13:09:33;12.50;99.90
14409;DHT22;7289;50.706;4.992;2023-02-21T13:12:07;12.80;99.90
14409;DHT22;7289;50.706;4.992;2023-02-21T13:14:40;12.80;99.90
14409;DHT22;7289;50.706;4.992;2023-02-21T13:17:11;13.00;99.90
14409;DHT22;7289;50.706;4.992;2023-02-21T13:19:47;12.90;99.90
14409;DHT22;7289;50.706;4.992;2023-02-21T13:22:22;12.90;99.90
14409;DHT22;7289;50.706;4.992;2023-02-21T13:25:20;12.70;99.90
14409;DHT22;7289;50.706;4.992;2023-02-21T13:27:56;12.80;99.90
14409;DHT22;7289;50.706;4.992;2023-02-21T13:30:34;12.80;99.90
14409;DHT22;7289;50.706;4.992;2023-02-21T13:33:05;12.80;99.90
14409;DHT22;7289;50.706;4.992;2023-02-21T13:35:36;12.90;99.90
14409;DHT22;7289;50.706;4.992;2023-02-21T13:38:09;13.00;99.90
14409;DHT22;7289;50.706;4.992;2023-02-21T13:40:44;13.00;99.90
14409;DHT22;7289;50.706;4.992;2023-02-21T13:43:22;12.80;99.90
14409;DHT22;7289;50.706;4.992;2023-02-21T13:45:51;12.70;99.90
14409;DHT22;7289;50.706;4.992;2023-02-21T13:48:26;12.80;99.90
14409;DHT22;7289;50.706;4.992;2023-02-21T13:50:56;12.70;99.90
14409;DHT22;7289;50.706;4.992;2023-02-21T13:53:28;12.70;99.90
14409;DHT22;7289;50.706;4.992;2023-02-21T13:56:38;12.60;99.90
14409;DHT22;7289;50.706;4.992;2023-02-21T13:59:35;12.80;99.90
14409;DHT22;7289;50.706;4.992;2023-02-21T14:02:20;12.90;99.90
14409;DHT22;7289;50.706;4.992;2023-02-21T14:05:05;13.10;99.90
14409;DHT22;7289;50.706;4.992;2023-02-21T14:07:55;12.90;99.90
14409;DHT22;7289;50.706;4.992;2023-02-21T14:10:37;12.60;99.90
14409;DHT22;7289;50.706;4.992;2023-02-21T14:13:18;12.80;99.90
14409;DHT22;7289;50.706;4.992;2023-02-21T14:15:49;12.90;99.90
14409;DHT22;7289;50.706;4.992;2023-02-21T14:18:21;13.00;99.90
14409;DHT22;7289;50.706;4.992;2023-02-21T14:20:54;13.00;99.90
14409;DHT22;7289;50.706;4.992;2023-02-21T14:23:30;12.90;99.90
14409;DHT22;7289;50.706;4.992;2023-02-21T14:26:02;13.10;99.90
14409;DHT22;7289;50.706;4.992;2023-02-21T14:28:59;13.20;99.90
14409;DHT22;7289;50.706;4.992;2023-02-21T14:31:48;13.00;99.90
14409;DHT22;7289;50.706;4.992;2023-02-21T14:34:21;12.40;99.90
14409;DHT22;7289;50.706;4.992;2023-02-21T14:36:51;12.20;99.90
14409;DHT22;7289;50.706;4.992;2023-02-21T14:39:21;11.60;99.90
14409;DHT22;7289;50.706;4.992;2023-02-21T14:42:13;11.50;99.90
14409;DHT22;7289;50.706;4.992;2023-02-21T14:45:00;11.20;99.90
14409;DHT22;7289;50.706;4.992;2023-02-21T14:47:44;10.80;99.90
14409;DHT22;7289;50.706;4.992;2023-02-21T14:50:28;10.50;99.90
14409;DHT22;7289;50.706;4.992;2023-02-21T14:53:39;10.80;99.90
14409;DHT22;7289;50.706;4.992;2023-02-21T14:56:34;10.60;99.90
14409;DHT22;7289;50.706;4.992;2023-02-21T15:02:12;10.80;99.90
14409;DHT22;7289;50.706;4.992;2023-02-21T15:04:47;10.90;99.90
14409;DHT22;7289;50.706;4.992;2023-02-21T15:07:23;11.00;99.90
14409;DHT22;7289;50.706;4.992;2023-02-21T15:10:10;10.80;99.90
14409;DHT22;7289;50.706;4.992;2023-02-21T15:12:43;10.60;99.90
14409;DHT22;7289;50.706;4.992;2023-02-21T15:15:21;10.70;99.90
14409;DHT22;7289;50.706;4.992;2023-02-21T15:18:02;10.80;99.90
14409;DHT22;7289;50.706;4.992;2023-02-21T15:20:33;10.70;99.90
14409;DHT22;7289;50.706;4.992;2023-02-21T15:23:10;10.70;99.90
14409;DHT22;7289;50.706;4.992;2023-02-21T15:25:40;10.60;99.90
14409;DHT22;7289;50.706;4.992;2023-02-21T15:28:24;10.60;99.90
14409;DHT22;7289;50.706;4.992;2023-02-21T15:31:05;10.60;99.90
14409;DHT22;7289;50.706;4.992;2023-02-21T15:33:35;10.10;99.90
14409;DHT22;7289;50.706;4.992;2023-02-21T15:36:05;9.90;99.90
14409;DHT22;7289;50.706;4.992;2023-02-21T15:38:38;9.90;99.90
14409;DHT22;7289;50.706;4.992;2023-02-21T15:41:13;9.90;99.90
14409;DHT22;7289;50.706;4.992;2023-02-21T15:43:46;9.90;99.90
14409;DHT22;7289;50.706;4.992;2023-02-21T15:46:20;9.70;99.90
14409;DHT22;7289;50.706;4.992;2023-02-21T15:48:50;9.70;99.90
14409;DHT22;7289;50.706;4.992;2023-02-21T15:51:20;9.60;99.90
14409;DHT22;7289;50.706;4.992;2023-02-21T15:54:10;9.60;99.90
14409;DHT22;7289;50.706;4.992;2023-02-21T15:57:00;9.40;99.90
14409;DHT22;7289;50.706;4.992;2023-02-21T15:59:29;9.40;99.90
14409;DHT22;7289;50.706;4.992;2023-02-21T16:02:15;9.40;99.90
14409;DHT22;7289;50.706;4.992;2023-02-21T16:04:45;9.20;99.90
14409;DHT22;7289;50.706;4.992;2023-02-21T16:07:17;9.20;99.90
14409;DHT22;7289;50.706;4.992;2023-02-21T16:09:48;9.20;99.90
14409;DHT22;7289;50.706;4.992;2023-02-21T16:12:30;9.10;99.90
14409;DHT22;7289;50.706;4.992;2023-02-21T16:15:00;9.00;99.90
14409;DHT22;7289;50.706;4.992;2023-02-21T16:17:32;9.00;99.90
14409;DHT22;7289;50.706;4.992;2023-02-21T16:20:15;8.80;99.90
14409;DHT22;7289;50.706;4.992;2023-02-21T16:22:46;8.70;99.90
14409;DHT22;7289;50.706;4.992;2023-02-21T16:25:35;8.60;99.90
14409;DHT22;7289;50.706;4.992;2023-02-21T16:28:21;8.60;99.90
14409;DHT22;7289;50.706;4.992;2023-02-21T16:30:49;8.60;99.90
14409;DHT22;7289;50.706;4.992;2023-02-21T16:33:19;8.50;99.90
14409;DHT22;7289;50.706;4.992;2023-02-21T16:35:47;8.50;99.90
14409;DHT22;7289;50.706;4.992;2023-02-21T16:38:18;8.40;99.90
14409;DHT22;7289;50.706;4.992;2023-02-21T16:40:47;8.30;99.90
14409;DHT22;7289;50.706;4.992;2023-02-21T16:43:18;8.20;99.90
14409;DHT22;7289;50.706;4.992;2023-02-21T16:45:47;8.10;99.90
14409;DHT22;7289;50.706;4.992;2023-02-21T16:48:22;8.00;99.90
14409;DHT22;7289;50.706;4.992;2023-02-21T16:50:53;8.00;99.90
14409;DHT22;7289;50.706;4.992;2023-02-21T16:53:21;7.90;99.90